Time;durP1;ratioP1;P1;durP2;ratioP2;P2;SDS_P1;SDS_P2;PMS_P1;PMS_P2;Temp;Humidity;BMP_temperature;BMP_pressure;BME280_temperature;BME280_humidity;BME280_pressure;Samples;Min_cycle;Max_cycle;Signal;HPM_P1;HPM_P2
2022/11/16 00:01:13;;;;;;;2.90;2.70;;;;;;;;;;5054155;28;20465;-83
2022/11/16 00:03:40;;;;;;;4.80;4.40;;;;;;;;;;5026803;28;20050;-84
2022/11/16 00:06:07;;;;;;;4.50;3.00;;;;;;;;;;5014850;28;20046;-83
2022/11/16 00:08:34;;;;;;;4.65;4.20;;;;;;;;;;5014913;28;20060;-83
2022/11/16 00:11:05;;;;;;;3.08;2.88;;;;;;;;;;5015040;28;20050;-83
2022/11/16 00:13:31;;;;;;;5.07;4.63;;;;;;;;;;5014734;28;20050;-83
2022/11/16 00:15:58;;;;;;;4.43;3.50;;;;;;;;;;5014654;28;20050;-84
2022/11/16 00:18:26;;;;;;;6.80;4.68;;;;;;;;;;5014816;28;20128;-84
2022/11/16 00:20:52;;;;;;;6.43;5.60;;;;;;;;;;5014005;28;20050;-83
2022/11/16 00:23:19;;;;;;;5.35;3.67;;;;;;;;;;5015012;28;20054;-83
2022/11/16 00:25:46;;;;;;;4.55;4.22;;;;;;;;;;5014838;28;20054;-84
2022/11/16 00:28:12;;;;;;;2.55;2.38;;;;;;;;;;5014670;28;20046;-83
2022/11/16 00:30:39;;;;;;;3.72;3.25;;;;;;;;;;5014532;28;20046;-84
2022/11/16 00:33:06;;;;;;;4.75;3.88;;;;;;;;;;5014671;28;20156;-83
2022/11/16 00:35:37;;;;;;;3.47;3.08;;;;;;;;;;5014985;28;20049;-83
2022/11/16 00:38:04;;;;;;;3.38;3.08;;;;;;;;;;5020244;28;20053;-83
2022/11/16 00:40:30;;;;;;;5.15;4.78;;;;;;;;;;5014496;28;20045;-83
2022/11/16 00:42:57;;;;;;;4.68;4.05;;;;;;;;;;5014363;28;20058;-83
2022/11/16 00:45:23;;;;;;;3.65;3.30;;;;;;;;;;5014387;28;20046;-84
2022/11/16 00:47:50;;;;;;;7.35;4.63;;;;;;;;;;5014097;28;20054;-84
2022/11/16 00:50:16;;;;;;;6.35;5.88;;;;;;;;;;5014248;28;20057;-84
2022/11/16 00:52:44;;;;;;;2.90;2.70;;;;;;;;;;5014108;28;20046;-83
2022/11/16 00:55:11;;;;;;;5.20;4.78;;;;;;;;;;5014089;28;20057;-83
2022/11/16 00:57:37;;;;;;;3.60;3.40;;;;;;;;;;5014193;28;20046;-84
2022/11/16 01:00:05;;;;;;;4.13;3.72;;;;;;;;;;5014010;28;20049;-83
2022/11/16 01:02:31;;;;;;;4.93;4.53;;;;;;;;;;5014160;28;20057;-84
2022/11/16 01:05:00;;;;;;;3.45;3.25;;;;;;;;;;5013472;28;20495;-83
2022/11/16 01:07:27;;;;;;;2.28;2.15;;;;;;;;;;5052966;28;20056;-83
2022/11/16 01:09:55;;;;;;;6.65;5.63;;;;;;;;;;5053265;28;20085;-83
2022/11/16 01:12:20;;;;;;;2.42;2.25;;;;;;;;;;5052980;28;20417;-84
2022/11/16 01:14:47;;;;;;;6.82;4.38;;;;;;;;;;5053332;28;20053;-83
2022/11/16 01:17:13;;;;;;;4.15;3.08;;;;;;;;;;5053115;28;20053;-83
2022/11/16 01:19:40;;;;;;;4.95;4.45;;;;;;;;;;5041563;28;20107;-84
2022/11/16 01:22:07;;;;;;;3.67;2.92;;;;;;;;;;5017389;28;20061;-84
2022/11/16 01:24:33;;;;;;;6.70;5.47;;;;;;;;;;5013583;28;20053;-83
2022/11/16 01:27:01;;;;;;;5.70;4.20;;;;;;;;;;5013444;28;20050;-83
2022/11/16 01:29:29;;;;;;;4.30;3.92;;;;;;;;;;5013453;28;20411;-84
2022/11/16 01:31:55;;;;;;;5.07;3.50;;;;;;;;;;5019735;28;20046;-83
2022/11/16 01:34:23;;;;;;;4.07;2.60;;;;;;;;;;5014525;28;20120;-83
2022/11/16 01:36:49;;;;;;;2.88;2.65;;;;;;;;;;5013740;28;20103;-84
2022/11/16 01:39:16;;;;;;;5.57;4.55;;;;;;;;;;5013267;28;20053;-83
2022/11/16 01:41:44;;;;;;;4.15;3.85;;;;;;;;;;5013405;28;20124;-83
2022/11/16 01:44:25;;;;;;;4.78;3.17;;;;;;;;;;5013200;28;20042;-83
2022/11/16 01:46:53;;;;;;;3.33;3.03;;;;;;;;;;5013085;28;20077;-84
2022/11/16 01:49:21;;;;;;;3.70;3.13;;;;;;;;;;5013139;28;20049;-84
2022/11/16 01:51:49;;;;;;;5.00;3.47;;;;;;;;;;5013277;28;20400;-83
2022/11/16 01:54:16;;;;;;;10.95;3.65;;;;;;;;;;5012918;28;20053;-84
2022/11/16 01:56:44;;;;;;;3.25;3.05;;;;;;;;;;5012942;28;20053;-84
2022/11/16 01:59:11;;;;;;;3.08;2.83;;;;;;;;;;5012786;28;20061;-84
2022/11/16 02:01:37;;;;;;;4.88;4.57;;;;;;;;;;5013067;28;20057;-84
2022/11/16 02:04:05;;;;;;;6.20;5.70;;;;;;;;;;5012909;28;20057;-84
2022/11/16 02:06:42;;;;;;;4.38;4.07;;;;;;;;;;5013099;28;20077;-83
2022/11/16 02:12:14;;;;;;;4.40;3.75;;;;;;;;;;5013004;28;20060;-84
2022/11/16 02:14:51;;;;;;;3.08;2.80;;;;;;;;;;5013421;28;20049;-83
2022/11/16 02:17:30;;;;;;;11.30;3.33;;;;;;;;;;5016000;28;20699;-84
2022/11/16 02:20:16;;;;;;;6.43;5.88;;;;;;;;;;5013320;28;20058;-83
2022/11/16 02:22:51;;;;;;;3.22;3.03;;;;;;;;;;5012772;28;20054;-83
2022/11/16 02:25:23;;;;;;;5.18;4.07;;;;;;;;;;5014290;28;20073;-83
2022/11/16 02:27:57;;;;;;;8.38;4.85;;;;;;;;;;5054475;28;20049;-83
2022/11/16 02:30:25;;;;;;;3.70;3.40;;;;;;;;;;5052000;28;20056;-83
2022/11/16 02:32:53;;;;;;;3.58;3.30;;;;;;;;;;5051482;28;20052;-83
2022/11/16 02:35:21;;;;;;;4.32;4.03;;;;;;;;;;5051970;28;20060;-84
2022/11/16 02:37:50;;;;;;;6.43;5.82;;;;;;;;;;5017058;28;20108;-83
2022/11/16 02:40:17;;;;;;;4.88;4.45;;;;;;;;;;5012252;28;20058;-83
2022/11/16 02:42:47;;;;;;;5.78;5.35;;;;;;;;;;5012118;28;20734;-83
2022/11/16 02:45:16;;;;;;;5.03;4.70;;;;;;;;;;5011911;28;20054;-83
2022/11/16 02:47:46;;;;;;;3.78;3.50;;;;;;;;;;5013786;28;20108;-83
2022/11/16 02:50:15;;;;;;;4.55;4.15;;;;;;;;;;5012582;28;20050;-83
2022/11/16 02:52:41;;;;;;;4.63;4.35;;;;;;;;;;5012712;28;20054;-83
2022/11/16 02:55:08;;;;;;;8.63;5.10;;;;;;;;;;5012471;28;20050;-84
2022/11/16 02:57:38;;;;;;;6.65;4.35;;;;;;;;;;5012580;28;20042;-84
2022/11/16 03:00:06;;;;;;;5.95;5.47;;;;;;;;;;5012262;28;20638;-84
2022/11/16 03:02:36;;;;;;;4.57;4.20;;;;;;;;;;5012835;28;20112;-84
2022/11/16 03:05:05;;;;;;;5.82;3.90;;;;;;;;;;5012248;28;20053;-84
2022/11/16 03:07:34;;;;;;;5.78;4.05;;;;;;;;;;5012447;28;20096;-84
2022/11/16 03:10:01;;;;;;;4.25;3.90;;;;;;;;;;5011975;28;20467;-84
2022/11/16 03:12:29;;;;;;;8.57;5.75;;;;;;;;;;5012149;28;20053;-83
2022/11/16 03:14:58;;;;;;;4.97;4.50;;;;;;;;;;5012074;28;20057;-84
2022/11/16 03:17:28;;;;;;;4.15;3.67;;;;;;;;;;5012384;28;20096;-84
2022/11/16 03:19:57;;;;;;;4.97;4.57;;;;;;;;;;5014252;28;20057;-84
2022/11/16 03:22:27;;;;;;;6.55;5.70;;;;;;;;;;5039918;28;20053;-84
2022/11/16 03:24:54;;;;;;;7.50;5.65;;;;;;;;;;5051472;28;20126;-84
2022/11/16 03:27:25;;;;;;;5.65;4.38;;;;;;;;;;5029635;28;20046;-84
2022/11/16 03:29:55;;;;;;;3.72;3.30;;;;;;;;;;5011753;28;20058;-84
2022/11/16 03:32:27;;;;;;;5.85;5.35;;;;;;;;;;5011854;28;20450;-84
2022/11/16 03:34:56;;;;;;;8.43;4.32;;;;;;;;;;5011588;28;20839;-84
2022/11/16 03:37:24;;;;;;;7.20;4.75;;;;;;;;;;5011987;28;20046;-84
2022/11/16 03:39:52;;;;;;;6.47;6.07;;;;;;;;;;5011671;28;20053;-84
2022/11/16 03:42:20;;;;;;;7.05;5.80;;;;;;;;;;5011807;28;20112;-84
2022/11/16 03:44:48;;;;;;;7.53;6.65;;;;;;;;;;5011559;28;20046;-84
2022/11/16 03:47:15;;;;;;;5.28;4.68;;;;;;;;;;5011823;28;20107;-84
2022/11/16 03:49:43;;;;;;;5.40;4.30;;;;;;;;;;5011566;28;20053;-84
2022/11/16 03:52:10;;;;;;;4.30;3.92;;;;;;;;;;5012054;28;20049;-83
2022/11/16 03:54:36;;;;;;;6.65;3.95;;;;;;;;;;5011905;28;20061;-84
2022/11/16 03:57:04;;;;;;;10.93;4.60;;;;;;;;;;5015595;28;20038;-84
2022/11/16 03:59:31;;;;;;;5.80;5.25;;;;;;;;;;5015334;28;20096;-83
2022/11/16 04:01:57;;;;;;;5.95;4.75;;;;;;;;;;5017236;28;20492;-84
2022/11/16 04:26:16;;;;;;;6.90;5.53;;;;;;;;;;5014832;28;20138;-84
2022/11/16 04:28:43;;;;;;;4.05;3.72;;;;;;;;;;5014660;28;20415;-84
2022/11/16 04:39:22;;;;;;;7.68;4.10;;;;;;;;;;5014764;28;20072;-84
2022/11/16 04:47:20;;;;;;;6.03;3.63;;;;;;;;;;5014531;28;20120;-84
2022/11/16 04:49:46;;;;;;;4.55;2.55;;;;;;;;;;5014464;28;20061;-84
2022/11/16 04:52:13;;;;;;;4.55;4.15;;;;;;;;;;5024532;28;20049;-84
2022/11/16 04:54:39;;;;;;;6.10;4.72;;;;;;;;;;5053630;28;20053;-84
2022/11/16 04:57:06;;;;;;;7.60;3.97;;;;;;;;;;5053517;28;20045;-84
2022/11/16 04:59:32;;;;;;;7.40;3.53;;;;;;;;;;5053945;28;20091;-84
2022/11/16 05:02:09;;;;;;;6.13;5.63;;;;;;;;;;5053621;28;20487;-83
2022/11/16 05:04:36;;;;;;;7.72;5.72;;;;;;;;;;5053792;28;20057;-84
2022/11/16 05:07:02;;;;;;;8.38;5.70;;;;;;;;;;5052995;28;20049;-84
2022/11/16 05:09:29;;;;;;;9.07;4.75;;;;;;;;;;5057265;28;20509;-84
2022/11/16 05:11:55;;;;;;;6.85;5.40;;;;;;;;;;5055212;28;20461;-84
2022/11/16 05:14:22;;;;;;;6.10;5.60;;;;;;;;;;5053187;28;20387;-84
2022/11/16 05:16:48;;;;;;;6.07;5.53;;;;;;;;;;5053089;28;20052;-84
2022/11/16 05:22:00;;;;;;;4.95;4.20;;;;;;;;;;5053103;28;20059;-83
2022/11/16 05:24:33;;;;;;;5.20;4.65;;;;;;;;;;5053239;28;20044;-84
2022/11/16 05:27:00;;;;;;;8.00;5.93;;;;;;;;;;5053021;28;20049;-84
2022/11/16 05:29:26;;;;;;;6.20;4.72;;;;;;;;;;5053223;28;20533;-84
2022/11/16 05:31:53;;;;;;;3.65;3.33;;;;;;;;;;5052664;28;20056;-84
2022/11/16 05:34:20;;;;;;;6.20;4.32;;;;;;;;;;5053079;28;20048;-84
2022/11/16 05:36:47;;;;;;;7.88;5.05;;;;;;;;;;5053838;28;20049;-83
2022/11/16 05:39:14;;;;;;;6.68;6.10;;;;;;;;;;5052517;28;20094;-84
2022/11/16 05:41:40;;;;;;;6.07;4.95;;;;;;;;;;5053095;28;20119;-84
2022/11/16 05:44:07;;;;;;;13.35;6.22;;;;;;;;;;5046849;28;20065;-84
2022/11/16 05:46:33;;;;;;;5.90;4.65;;;;;;;;;;5013097;28;20487;-84
2022/11/16 05:49:00;;;;;;;7.90;7.38;;;;;;;;;;5019477;28;20104;-84
2022/11/16 05:51:28;;;;;;;9.80;5.10;;;;;;;;;;5031991;28;20081;-84
2022/11/16 05:53:54;;;;;;;7.05;5.50;;;;;;;;;;5048080;28;20053;-84
2022/11/16 05:56:21;;;;;;;7.78;5.38;;;;;;;;;;5049893;28;20045;-84
2022/11/16 05:58:47;;;;;;;5.95;4.82;;;;;;;;;;5020807;28;20058;-84
2022/11/16 06:01:14;;;;;;;5.82;5.28;;;;;;;;;;5022353;28;20108;-84
2022/11/16 06:03:40;;;;;;;6.57;5.93;;;;;;;;;;5026142;28;20046;-84
2022/11/16 06:06:07;;;;;;;8.73;7.90;;;;;;;;;;5022409;28;20053;-84
2022/11/16 06:08:35;;;;;;;5.60;5.10;;;;;;;;;;5012189;28;20104;-84
2022/11/16 06:11:02;;;;;;;5.25;4.93;;;;;;;;;;5011929;28;20049;-84
2022/11/16 06:13:29;;;;;;;4.70;4.32;;;;;;;;;;5012065;28;20153;-84
2022/11/16 06:15:55;;;;;;;9.82;5.47;;;;;;;;;;5012575;28;20116;-84
2022/11/16 06:18:22;;;;;;;5.85;4.47;;;;;;;;;;5010854;28;20053;-84
2022/11/16 06:20:48;;;;;;;5.50;4.95;;;;;;;;;;5011796;28;20050;-84
2022/11/16 06:23:15;;;;;;;18.77;9.80;;;;;;;;;;5012458;28;20462;-84
2022/11/16 06:25:43;;;;;;;6.70;6.25;;;;;;;;;;5012069;28;20053;-84
2022/11/16 06:28:10;;;;;;;7.40;6.70;;;;;;;;;;5011716;28;20062;-85
2022/11/16 06:30:37;;;;;;;8.38;4.80;;;;;;;;;;5011014;28;20104;-84
2022/11/16 06:33:03;;;;;;;6.63;6.05;;;;;;;;;;5011564;28;20060;-84
2022/11/16 06:35:30;;;;;;;6.47;5.15;;;;;;;;;;5012010;28;20077;-84
2022/11/16 06:37:57;;;;;;;4.63;4.22;;;;;;;;;;5015887;28;20049;-84
2022/11/16 06:40:24;;;;;;;7.35;6.68;;;;;;;;;;5024635;28;20057;-84
2022/11/16 06:42:52;;;;;;;7.32;6.57;;;;;;;;;;5028167;28;20494;-84
2022/11/16 06:45:18;;;;;;;5.88;5.18;;;;;;;;;;5021245;28;20123;-84
2022/11/16 06:47:45;;;;;;;7.07;6.40;;;;;;;;;;5021217;28;20041;-84
2022/11/16 06:50:11;;;;;;;7.13;6.40;;;;;;;;;;5018889;28;20096;-83
2022/11/16 06:52:59;;;;;;;8.73;4.75;;;;;;;;;;5023036;28;20042;-84
2022/11/16 06:55:26;;;;;;;5.85;4.07;;;;;;;;;;5022163;28;20414;-84
2022/11/16 06:57:54;;;;;;;7.53;6.70;;;;;;;;;;5025756;28;20046;-84
2022/11/16 07:00:20;;;;;;;5.13;4.53;;;;;;;;;;5023864;28;20087;-84
2022/11/16 07:02:47;;;;;;;8.02;7.32;;;;;;;;;;5016881;28;20096;-84
2022/11/16 07:05:13;;;;;;;6.07;5.03;;;;;;;;;;5011820;28;20462;-84
2022/11/16 07:07:40;;;;;;;7.97;6.30;;;;;;;;;;5011787;28;20050;-84
2022/11/16 07:10:06;;;;;;;6.82;5.90;;;;;;;;;;5019244;28;20099;-84
2022/11/16 07:12:33;;;;;;;8.98;6.40;;;;;;;;;;5031271;28;20099;-84
2022/11/16 07:15:01;;;;;;;9.88;5.93;;;;;;;;;;5030928;28;20062;-84
2022/11/16 07:17:27;;;;;;;8.80;6.25;;;;;;;;;;5030934;28;20499;-84
2022/11/16 07:19:54;;;;;;;12.05;6.63;;;;;;;;;;5051277;28;20115;-84
2022/11/16 07:22:20;;;;;;;7.72;7.13;;;;;;;;;;5043624;28;20049;-84
2022/11/16 07:24:47;;;;;;;9.82;6.97;;;;;;;;;;5021214;28;20099;-84
2022/11/16 07:27:13;;;;;;;5.35;4.95;;;;;;;;;;5019238;28;20038;-84
2022/11/16 07:29:40;;;;;;;6.88;6.22;;;;;;;;;;5012558;28;20057;-84
2022/11/16 07:32:08;;;;;;;6.15;5.68;;;;;;;;;;5015115;28;20100;-84
2022/11/16 07:54:13;;;;;;;;;;;;;;;;;;;;;
2022/11/16 07:56:56;;;;;;;9.10;7.25;;;;;;;;;;4710388;30;20628;-85
2022/11/16 11:31:10;;;;;;;7.53;6.13;;;;;;;;;;4802850;29;20054;-84
2022/11/16 11:39:33;;;;;;;7.28;5.60;;;;;;;;;;4784294;29;20067;-84
2022/11/16 11:42:18;;;;;;;6.07;5.57;;;;;;;;;;4811405;29;20054;-84
2022/11/16 11:44:49;;;;;;;7.78;5.80;;;;;;;;;;4826730;29;20477;-84
2022/11/16 11:47:25;;;;;;;7.47;6.78;;;;;;;;;;4847176;29;20103;-84
2022/11/16 11:49:54;;;;;;;6.63;6.00;;;;;;;;;;4878846;29;20491;-83
2022/11/16 11:52:25;;;;;;;7.38;6.68;;;;;;;;;;4878568;29;20145;-83
2022/11/16 11:54:55;;;;;;;6.40;5.90;;;;;;;;;;4878492;29;20057;-83
2022/11/16 11:57:23;;;;;;;6.18;5.60;;;;;;;;;;4878200;29;20053;-83
2022/11/16 11:59:51;;;;;;;11.93;11.15;;;;;;;;;;4878173;29;20080;-84
2022/11/16 12:02:22;;;;;;;7.85;7.05;;;;;;;;;;4878084;29;20117;-84
2022/11/16 12:04:57;;;;;;;10.85;10.10;;;;;;;;;;4878299;29;21367;-85
2022/11/16 12:07:44;;;;;;;6.05;5.45;;;;;;;;;;4877666;29;20823;-84
2022/11/16 12:10:18;;;;;;;6.45;5.85;;;;;;;;;;4876427;29;20507;-84
2022/11/16 12:12:48;;;;;;;7.00;6.40;;;;;;;;;;4878280;29;20472;-85
2022/11/16 12:15:39;;;;;;;12.43;11.43;;;;;;;;;;4876912;29;20077;-84
2022/11/16 12:18:12;;;;;;;8.27;7.60;;;;;;;;;;4869041;29;20108;-84
2022/11/16 12:20:44;;;;;;;4.07;3.67;;;;;;;;;;4877882;29;20117;-84
2022/11/16 12:23:18;;;;;;;6.00;5.57;;;;;;;;;;4879689;29;20142;-83
2022/11/16 12:25:50;;;;;;;6.30;5.78;;;;;;;;;;4879659;29;20416;-84
2022/11/16 12:28:24;;;;;;;4.72;4.32;;;;;;;;;;4877897;29;20496;-84
2022/11/16 12:30:54;;;;;;;8.70;8.20;;;;;;;;;;4877778;29;20060;-84
2022/11/16 12:33:27;;;;;;;7.95;5.93;;;;;;;;;;4878047;29;20057;-84
2022/11/16 12:36:00;;;;;;;6.28;5.95;;;;;;;;;;4877812;29;20468;-84
2022/11/16 12:38:34;;;;;;;6.43;5.88;;;;;;;;;;4877253;29;20061;-83
2022/11/16 12:41:08;;;;;;;8.18;7.57;;;;;;;;;;4877258;29;20109;-84
2022/11/16 12:43:37;;;;;;;14.32;13.55;;;;;;;;;;4877841;29;20060;-84
2022/11/16 12:46:09;;;;;;;6.00;5.10;;;;;;;;;;4877733;29;20069;-84
2022/11/16 12:48:49;;;;;;;10.07;9.48;;;;;;;;;;4877845;29;20056;-84
2022/11/16 12:51:22;;;;;;;10.45;9.75;;;;;;;;;;4877503;29;20060;-84
2022/11/16 12:53:56;;;;;;;6.75;5.57;;;;;;;;;;4877677;29;20045;-84
2022/11/16 12:56:27;;;;;;;6.30;5.80;;;;;;;;;;4894903;29;20056;-84
2022/11/16 12:59:01;;;;;;;6.82;6.22;;;;;;;;;;4914980;29;20490;-84
2022/11/16 13:01:31;;;;;;;6.57;5.55;;;;;;;;;;4915098;29;20511;-85
2022/11/16 13:04:00;;;;;;;6.22;5.68;;;;;;;;;;4914993;29;20528;-84
2022/11/16 13:06:29;;;;;;;7.85;6.68;;;;;;;;;;4914821;29;20391;-85
2022/11/16 13:09:00;;;;;;;8.10;7.40;;;;;;;;;;4914011;29;20056;-85
2022/11/16 13:11:30;;;;;;;9.15;6.10;;;;;;;;;;4914295;29;20060;-85
2022/11/16 13:13:57;;;;;;;7.70;6.93;;;;;;;;;;4914735;29;20099;-84
2022/11/16 13:16:24;;;;;;;12.88;11.82;;;;;;;;;;4914551;29;20584;-84
2022/11/16 13:18:52;;;;;;;11.10;8.00;;;;;;;;;;4916829;29;20052;-84
2022/11/16 13:21:33;;;;;;;9.68;8.20;;;;;;;;;;4914865;29;20052;-84
2022/11/16 13:24:04;;;;;;;8.35;6.78;;;;;;;;;;4911651;29;20056;-84
2022/11/16 13:26:35;;;;;;;11.27;8.18;;;;;;;;;;4913957;29;20451;-84
2022/11/16 13:29:06;;;;;;;13.07;12.18;;;;;;;;;;4910857;29;20064;-84
2022/11/16 13:31:34;;;;;;;7.03;6.35;;;;;;;;;;4906965;29;20052;-83
2022/11/16 13:34:02;;;;;;;6.72;6.03;;;;;;;;;;4899847;29;20194;-83
2022/11/16 13:36:46;;;;;;;11.55;10.80;;;;;;;;;;4895306;29;20056;-83
2022/11/16 13:39:14;;;;;;;7.10;5.15;;;;;;;;;;4893551;29;20853;-83
2022/11/16 13:41:42;;;;;;;10.70;9.98;;;;;;;;;;4894210;29;20459;-83
2022/11/16 13:44:23;;;;;;;7.80;7.22;;;;;;;;;;4894809;29;20045;-83
2022/11/16 13:46:51;;;;;;;7.80;7.03;;;;;;;;;;4939649;29;20129;-83
2022/11/16 13:49:25;;;;;;;7.88;5.43;;;;;;;;;;4932403;29;20048;-83
2022/11/16 13:51:54;;;;;;;8.98;8.02;;;;;;;;;;4914359;29;20064;-83
2022/11/16 13:54:27;;;;;;;6.80;6.07;;;;;;;;;;4914186;29;20052;-83
2022/11/16 13:56:55;;;;;;;9.00;6.00;;;;;;;;;;4913992;29;20103;-83
2022/11/16 13:59:24;;;;;;;6.55;5.88;;;;;;;;;;4914010;29;20095;-83
2022/11/16 14:01:58;;;;;;;10.55;9.85;;;;;;;;;;4914057;29;20522;-83
2022/11/16 14:04:41;;;;;;;10.27;9.63;;;;;;;;;;4914163;29;20071;-82
2022/11/16 14:07:32;;;;;;;5.18;4.65;;;;;;;;;;4913991;29;20540;-83
2022/11/16 14:09:58;;;;;;;8.70;5.43;;;;;;;;;;4904935;29;20051;-83
2022/11/16 14:12:52;;;;;;;10.80;10.02;;;;;;;;;;4919120;29;20483;-83
2022/11/16 14:15:21;;;;;;;6.07;5.57;;;;;;;;;;4875839;29;20087;-84
2022/11/16 14:17:56;;;;;;;8.60;7.72;;;;;;;;;;4857843;29;20053;-84
2022/11/16 14:20:43;;;;;;;8.60;6.85;;;;;;;;;;4857717;29;20065;-84
2022/11/16 14:23:13;;;;;;;5.85;5.30;;;;;;;;;;4863454;29;20049;-84
2022/11/16 14:25:43;;;;;;;9.98;4.85;;;;;;;;;;4917052;29;20502;-84
2022/11/16 14:28:25;;;;;;;6.50;4.50;;;;;;;;;;4951566;29;20172;-84
2022/11/16 14:30:56;;;;;;;4.90;4.22;;;;;;;;;;4951310;29;20051;-84
2022/11/16 14:33:29;;;;;;;6.13;5.57;;;;;;;;;;4951881;29;20505;-84
2022/11/16 14:35:55;;;;;;;6.95;5.28;;;;;;;;;;4951321;29;20163;-84
2022/11/16 14:38:26;;;;;;;6.32;5.72;;;;;;;;;;4950358;28;20047;-84
2022/11/16 14:40:54;;;;;;;6.28;5.80;;;;;;;;;;4950908;29;20417;-84
2022/11/16 14:43:23;;;;;;;6.43;5.82;;;;;;;;;;4951566;29;20051;-84
2022/11/16 14:45:53;;;;;;;8.13;5.32;;;;;;;;;;4951195;29;20110;-84
2022/11/16 14:48:22;;;;;;;5.13;4.63;;;;;;;;;;4951481;29;20047;-84
2022/11/16 14:50:58;;;;;;;6.97;5.38;;;;;;;;;;4974387;28;20684;-84
2022/11/16 14:53:26;;;;;;;8.18;7.43;;;;;;;;;;5012220;28;20467;-84
2022/11/16 14:55:52;;;;;;;7.95;6.95;;;;;;;;;;5011494;28;20116;-84
2022/11/16 14:58:20;;;;;;;6.65;5.07;;;;;;;;;;5011710;28;20057;-84
2022/11/16 15:00:57;;;;;;;5.78;5.28;;;;;;;;;;5011916;28;20124;-84
2022/11/16 15:03:27;;;;;;;5.50;3.92;;;;;;;;;;5012112;28;20089;-84
2022/11/16 15:05:56;;;;;;;5.45;5.05;;;;;;;;;;5011292;28;20046;-83
2022/11/16 15:08:31;;;;;;;5.15;4.78;;;;;;;;;;4992136;28;20046;-82
2022/11/16 15:10:58;;;;;;;3.40;3.10;;;;;;;;;;4993457;28;20129;-82
2022/11/16 15:13:25;;;;;;;4.72;3.97;;;;;;;;;;5000219;28;20062;-83
2022/11/16 15:16:06;;;;;;;3.65;2.95;;;;;;;;;;5032363;28;20119;-82
2022/11/16 15:18:34;;;;;;;4.38;4.07;;;;;;;;;;5051331;28;20061;-83
2022/11/16 15:21:01;;;;;;;6.63;4.40;;;;;;;;;;5050597;28;20548;-83
2022/11/16 15:23:27;;;;;;;4.28;3.88;;;;;;;;;;5051083;28;20052;-83
2022/11/16 15:25:55;;;;;;;4.25;3.90;;;;;;;;;;5050295;28;20091;-83
2022/11/16 15:28:22;;;;;;;5.13;4.82;;;;;;;;;;5051272;28;20048;-82
2022/11/16 15:30:50;;;;;;;9.38;6.00;;;;;;;;;;5051394;28;20084;-83
2022/11/16 15:33:18;;;;;;;5.25;4.75;;;;;;;;;;5031501;28;20091;-83
2022/11/16 15:35:46;;;;;;;7.30;6.60;;;;;;;;;;5031554;28;20441;-84
2022/11/16 15:38:14;;;;;;;5.95;4.55;;;;;;;;;;5012458;28;20150;-83
2022/11/16 15:40:43;;;;;;;4.18;3.22;;;;;;;;;;5011905;28;20049;-83
2022/11/16 15:43:10;;;;;;;4.82;4.53;;;;;;;;;;5012170;28;20104;-83
2022/11/16 15:45:37;;;;;;;4.50;4.10;;;;;;;;;;5011553;28;20054;-83
2022/11/16 15:48:04;;;;;;;4.25;3.85;;;;;;;;;;5026627;28;20050;-83
2022/11/16 15:50:30;;;;;;;6.18;5.57;;;;;;;;;;5031492;28;20046;-83
2022/11/16 15:52:58;;;;;;;3.47;3.17;;;;;;;;;;5050863;28;20045;-83
2022/11/16 15:55:27;;;;;;;4.68;3.10;;;;;;;;;;5054723;28;20049;-83
2022/11/16 15:58:00;;;;;;;4.03;3.47;;;;;;;;;;5054293;28;20053;-83
2022/11/16 16:00:27;;;;;;;3.85;3.55;;;;;;;;;;5055954;28;20049;-83
2022/11/16 16:02:55;;;;;;;5.15;3.42;;;;;;;;;;5054401;28;20045;-84
2022/11/16 16:05:32;;;;;;;3.67;3.38;;;;;;;;;;5054639;28;20079;-84
2022/11/16 16:08:00;;;;;;;4.82;4.45;;;;;;;;;;5054043;28;20049;-84
2022/11/16 16:10:27;;;;;;;4.57;4.18;;;;;;;;;;5054225;28;20540;-84
2022/11/16 16:12:54;;;;;;;6.03;5.43;;;;;;;;;;5054042;28;20053;-84
2022/11/16 16:15:22;;;;;;;5.43;5.03;;;;;;;;;;5051748;28;20632;-85
2022/11/16 16:17:50;;;;;;;5.10;4.60;;;;;;;;;;5048049;28;20053;-84
2022/11/16 16:20:18;;;;;;;3.92;3.65;;;;;;;;;;5054093;28;20045;-85
2022/11/16 16:22:45;;;;;;;3.63;3.30;;;;;;;;;;5053714;28;20673;-84
2022/11/16 16:25:26;;;;;;;5.30;4.90;;;;;;;;;;5031929;28;20499;-84
2022/11/16 16:27:53;;;;;;;7.10;6.47;;;;;;;;;;5014590;28;20451;-85
2022/11/16 16:30:20;;;;;;;4.72;4.35;;;;;;;;;;5021130;28;20100;-84
2022/11/16 16:32:47;;;;;;;11.52;10.82;;;;;;;;;;5020034;28;20110;-85
2022/11/16 16:35:15;;;;;;;3.92;3.60;;;;;;;;;;5032055;28;20482;-85
2022/11/16 16:37:41;;;;;;;4.57;4.07;;;;;;;;;;5022237;28;20129;-84
2022/11/16 16:40:09;;;;;;;3.50;3.15;;;;;;;;;;5014128;28;20058;-85
2022/11/16 16:42:36;;;;;;;5.63;5.13;;;;;;;;;;5014366;28;20495;-84
2022/11/16 16:45:03;;;;;;;10.75;10.05;;;;;;;;;;5023443;28;20124;-84
2022/11/16 16:47:30;;;;;;;5.03;4.28;;;;;;;;;;5017166;28;20389;-85
2022/11/16 16:49:57;;;;;;;5.25;4.65;;;;;;;;;;5014150;28;20050;-84
2022/11/16 16:52:23;;;;;;;4.90;4.45;;;;;;;;;;5038827;28;20403;-84
2022/11/16 16:54:50;;;;;;;3.92;3.63;;;;;;;;;;5023318;28;20050;-83
2022/11/16 16:57:17;;;;;;;4.85;3.15;;;;;;;;;;5016878;28;20046;-84
2022/11/16 16:59:47;;;;;;;4.20;3.85;;;;;;;;;;5026191;28;20049;-83
2022/11/16 17:02:13;;;;;;;5.18;3.55;;;;;;;;;;5025818;28;20054;-83
2022/11/16 17:04:42;;;;;;;4.10;3.78;;;;;;;;;;5013721;28;20112;-83
2022/11/16 17:07:09;;;;;;;8.25;4.45;;;;;;;;;;5014053;28;20120;-86
2022/11/16 17:09:35;;;;;;;3.58;3.28;;;;;;;;;;5013773;28;20046;-86
2022/11/16 17:12:02;;;;;;;6.53;5.38;;;;;;;;;;5014014;28;20495;-85
2022/11/16 17:14:28;;;;;;;4.20;3.38;;;;;;;;;;5021853;28;20058;-85
2022/11/16 17:16:56;;;;;;;4.38;4.07;;;;;;;;;;5023364;28;20065;-85
2022/11/16 17:19:23;;;;;;;4.85;4.45;;;;;;;;;;5016643;28;20053;-85
2022/11/16 17:21:51;;;;;;;5.78;5.20;;;;;;;;;;5019564;28;20430;-85
2022/11/16 17:24:17;;;;;;;3.40;3.08;;;;;;;;;;5018784;28;20044;-85
2022/11/16 17:26:47;;;;;;;5.43;4.05;;;;;;;;;;5018990;28;20077;-86
2022/11/16 17:29:13;;;;;;;4.53;4.20;;;;;;;;;;5022474;28;20053;-85
2022/11/16 17:31:42;;;;;;;5.15;4.65;;;;;;;;;;5023993;28;20099;-85
2022/11/16 17:34:10;;;;;;;5.78;5.15;;;;;;;;;;5023625;28;20119;-85
2022/11/16 17:36:36;;;;;;;7.18;6.18;;;;;;;;;;5032129;28;20058;-86
2022/11/16 17:39:03;;;;;;;5.60;5.10;;;;;;;;;;5052085;28;20052;-87
2022/11/16 17:41:29;;;;;;;7.88;7.13;;;;;;;;;;5041068;28;20049;-87
2022/11/16 17:43:56;;;;;;;7.07;5.13;;;;;;;;;;5015561;28;20101;-90
2022/11/16 17:46:24;;;;;;;4.63;3.47;;;;;;;;;;5018824;28;20060;-85
2022/11/16 17:48:51;;;;;;;6.45;3.90;;;;;;;;;;5015096;28;20050;-86
2022/11/16 17:51:19;;;;;;;3.72;3.42;;;;;;;;;;5023011;28;20131;-85
2022/11/16 17:53:46;;;;;;;2.75;2.40;;;;;;;;;;5047959;28;20110;-85
2022/11/16 17:56:13;;;;;;;4.32;3.80;;;;;;;;;;5052274;28;20049;-85
2022/11/16 17:58:40;;;;;;;2.65;2.45;;;;;;;;;;5052179;28;20061;-85
2022/11/16 18:01:06;;;;;;;3.70;3.40;;;;;;;;;;5025589;28;20104;-86
2022/11/16 18:03:35;;;;;;;3.55;3.10;;;;;;;;;;5040154;28;20068;-85
2022/11/16 18:06:03;;;;;;;3.38;3.08;;;;;;;;;;5044024;28;20053;-85
2022/11/16 18:08:32;;;;;;;3.88;3.53;;;;;;;;;;5026203;28;20052;-86
2022/11/16 18:11:03;;;;;;;7.40;4.70;;;;;;;;;;5011824;28;20054;-86
2022/11/16 18:13:29;;;;;;;4.38;4.05;;;;;;;;;;5017307;28;20642;-86
2022/11/16 18:16:01;;;;;;;2.70;2.42;;;;;;;;;;5022515;28;20096;-86
2022/11/16 18:18:27;;;;;;;3.47;3.03;;;;;;;;;;5020559;28;20495;-87
2022/11/16 18:20:54;;;;;;;4.10;3.22;;;;;;;;;;5020938;28;20049;-87
2022/11/16 18:23:20;;;;;;;3.47;3.22;;;;;;;;;;5018877;28;20706;-85
2022/11/16 18:25:48;;;;;;;4.60;4.20;;;;;;;;;;5027115;28;20054;-85
2022/11/16 18:28:17;;;;;;;6.45;3.63;;;;;;;;;;5016451;28;20496;-85
2022/11/16 18:30:43;;;;;;;5.30;3.55;;;;;;;;;;5023190;28;20045;-85
2022/11/16 18:33:10;;;;;;;4.22;3.88;;;;;;;;;;5023020;28;20050;-86
2022/11/16 18:35:36;;;;;;;2.95;2.75;;;;;;;;;;5013840;28;20046;-85
2022/11/16 18:38:04;;;;;;;6.07;5.20;;;;;;;;;;5013832;28;20127;-86
2022/11/16 18:40:30;;;;;;;4.28;2.67;;;;;;;;;;5027361;28;20045;-85
2022/11/16 18:42:58;;;;;;;3.15;2.95;;;;;;;;;;5041038;28;20478;-87
2022/11/16 18:45:25;;;;;;;2.53;2.33;;;;;;;;;;5055950;28;20068;-87
2022/11/16 18:47:53;;;;;;;3.90;3.55;;;;;;;;;;5045144;28;20110;-87
2022/11/16 18:50:19;;;;;;;4.13;3.72;;;;;;;;;;5034114;28;20046;-85
2022/11/16 18:52:46;;;;;;;4.93;4.45;;;;;;;;;;5033900;28;20049;-83
2022/11/16 18:55:13;;;;;;;4.63;3.95;;;;;;;;;;5033626;28;20049;-86
2022/11/16 18:57:40;;;;;;;3.53;3.22;;;;;;;;;;5032821;28;20060;-87
2022/11/16 19:00:09;;;;;;;5.53;3.35;;;;;;;;;;5034201;28;20054;-86
2022/11/16 19:02:36;;;;;;;3.88;3.50;;;;;;;;;;5030375;28;20083;-87
2022/11/16 19:05:03;;;;;;;2.78;2.30;;;;;;;;;;5012269;28;20057;-85
2022/11/16 19:07:29;;;;;;;2.97;2.40;;;;;;;;;;5026483;28;20103;-87
2022/11/16 19:09:56;;;;;;;3.65;2.58;;;;;;;;;;5031243;28;20053;-87
2022/11/16 19:12:22;;;;;;;3.53;3.08;;;;;;;;;;5033110;28;20115;-87
2022/11/16 19:14:49;;;;;;;3.90;3.60;;;;;;;;;;5019439;28;20565;-87
2022/11/16 19:17:18;;;;;;;5.65;3.15;;;;;;;;;;5032810;28;20046;-87
2022/11/16 19:19:44;;;;;;;5.28;4.43;;;;;;;;;;5012934;28;20054;-88
2022/11/16 19:22:11;;;;;;;3.88;3.50;;;;;;;;;;5014096;28;20491;-87
2022/11/16 19:24:37;;;;;;;5.47;5.00;;;;;;;;;;5017466;28;20057;-87
2022/11/16 19:27:04;;;;;;;4.40;4.00;;;;;;;;;;5028213;28;20050;-87
2022/11/16 19:29:30;;;;;;;6.75;3.05;;;;;;;;;;5033452;28;20050;-88
2022/11/16 19:31:57;;;;;;;5.68;5.20;;;;;;;;;;5029570;28;20450;-87